SAS7203 EFHK-LIMF
Flight info
| Callsign | SAS7203 |
|---|---|
| Flight time | 2h 54m |
| Altitude | 38000 |
| Route | VALOX Y117 ROSAX DCT PIPAV DCT EVONA DCT ANFEV DCT PENOR M607 GOVEN/N0415F280 P31 BUKIG/N0428F300 P31 KOBUS/N0442F380 P31 MAREM DCT PEMEL P31 DOSEL DCT EBEDA DCT MANAL/N0442F390 M736 OLPIX/N0365F190 M736 EKPEB DCT RENTA DCT ATPED DCT PEPAG DCT NELAB |
| Aircraft | A20N/M-SDE3FGIJ1RWXY/ALB1 |
Departure
| Time | 2026-04-26 16:25 |
|---|---|
| Airport | Helsinki Vantaa Airport (EFHK) |
Arrival
| Time | 2026-04-26 19:19 |
|---|---|
| Airport | Turin Airport (LIMF) |
| Time | Latitude | Longitude | Altitude | Speed | Heading |
|---|---|---|---|---|---|
| 2026-04-26 15:54 | 60.31784 | 24.97093 | 154 ft | 0 kts | 242° |
| 2026-04-26 16:16 | 60.31796 | 24.97140 | 162 ft | 6 kts | 243° |
| 2026-04-26 16:16 | 60.31809 | 24.97185 | 162 ft | 2 kts | 225° |
| 2026-04-26 16:17 | 60.31818 | 24.97198 | 162 ft | 2 kts | 173° |
| 2026-04-26 16:17 | 60.31828 | 24.97192 | 162 ft | 2 kts | 155° |
| 2026-04-26 16:17 | 60.31833 | 24.97187 | 161 ft | 0 kts | 154° |
| 2026-04-26 16:20 | 60.31818 | 24.97202 | 161 ft | 6 kts | 154° |
| 2026-04-26 16:21 | 60.31754 | 24.97271 | 161 ft | 15 kts | 153° |
| 2026-04-26 16:21 | 60.31641 | 24.97388 | 161 ft | 17 kts | 136° |
| 2026-04-26 16:21 | 60.31629 | 24.97450 | 160 ft | 3 kts | 87° |
| 2026-04-26 16:21 | 60.31624 | 24.97542 | 160 ft | 11 kts | 118° |
| 2026-04-26 16:22 | 60.31539 | 24.97638 | 160 ft | 19 kts | 152° |
| 2026-04-26 16:22 | 60.31401 | 24.97781 | 159 ft | 25 kts | 153° |
| 2026-04-26 16:22 | 60.31245 | 24.97944 | 159 ft | 24 kts | 152° |
| 2026-04-26 16:22 | 60.31099 | 24.98093 | 158 ft | 22 kts | 154° |
| 2026-04-26 16:23 | 60.30986 | 24.98211 | 158 ft | 14 kts | 138° |
| 2026-04-26 16:23 | 60.30979 | 24.98377 | 157 ft | 13 kts | 71° |
| 2026-04-26 16:23 | 60.31025 | 24.98494 | 157 ft | 9 kts | 358° |
| 2026-04-26 16:23 | 60.31061 | 24.98463 | 158 ft | 0 kts | 332° |
| 2026-04-26 16:24 | 60.31064 | 24.98460 | 158 ft | 4 kts | 332° |
| 2026-04-26 16:24 | 60.31299 | 24.98219 | 160 ft | 71 kts | 333° |
| 2026-04-26 16:24 | 60.31911 | 24.97591 | 162 ft | 123 kts | 333° |
| 2026-04-26 16:24 | 60.32704 | 24.96771 | 668 ft | 122 kts | 332° |
| 2026-04-26 16:25 | 60.33495 | 24.96038 | 1342 ft | 132 kts | 336° |
| 2026-04-26 16:25 | 60.34370 | 24.95303 | 1931 ft | 137 kts | 338° |
| 2026-04-26 16:25 | 60.35288 | 24.94482 | 2446 ft | 153 kts | 326° |
| 2026-04-26 16:25 | 60.35916 | 24.92610 | 2991 ft | 177 kts | 292° |
| 2026-04-26 16:26 | 60.35974 | 24.89923 | 3466 ft | 210 kts | 266° |
| 2026-04-26 16:26 | 60.35697 | 24.87915 | 3801 ft | 231 kts | 255° |
| 2026-04-26 16:26 | 60.34689 | 24.83697 | 4001 ft | 265 kts | 246° |
| 2026-04-26 16:26 | 60.33752 | 24.80487 | 4005 ft | 265 kts | 244° |
| 2026-04-26 16:27 | 60.32810 | 24.77304 | 3999 ft | 264 kts | 245° |
| 2026-04-26 16:27 | 60.31888 | 24.74099 | 4039 ft | 264 kts | 245° |
| 2026-04-26 16:27 | 60.30987 | 24.70879 | 4034 ft | 264 kts | 246° |
| 2026-04-26 16:27 | 60.29989 | 24.67739 | 4231 ft | 274 kts | 231° |
| 2026-04-26 16:28 | 60.28357 | 24.65658 | 5037 ft | 284 kts | 200° |
| 2026-04-26 16:28 | 60.26432 | 24.64751 | 6161 ft | 285 kts | 194° |
| 2026-04-26 16:28 | 60.24464 | 24.64031 | 7117 ft | 289 kts | 192° |
| 2026-04-26 16:28 | 60.22470 | 24.63336 | 8076 ft | 292 kts | 192° |
| 2026-04-26 16:29 | 60.20500 | 24.62343 | 9036 ft | 292 kts | 207° |
| 2026-04-26 16:29 | 60.18653 | 24.60632 | 9978 ft | 294 kts | 209° |
| 2026-04-26 16:29 | 60.16762 | 24.58800 | 10509 ft | 312 kts | 210° |
| 2026-04-26 16:29 | 60.14750 | 24.56767 | 10832 ft | 335 kts | 210° |
| 2026-04-26 16:30 | 60.12643 | 24.54590 | 11471 ft | 344 kts | 211° |
| 2026-04-26 16:30 | 60.10507 | 24.52372 | 12332 ft | 348 kts | 211° |
| 2026-04-26 16:30 | 60.08349 | 24.50125 | 13188 ft | 351 kts | 211° |
| 2026-04-26 16:30 | 60.06166 | 24.47849 | 13966 ft | 356 kts | 211° |
| 2026-04-26 16:31 | 60.03960 | 24.45555 | 14741 ft | 359 kts | 211° |
| 2026-04-26 16:31 | 60.01737 | 24.43248 | 15515 ft | 361 kts | 211° |
| 2026-04-26 16:31 | 59.99499 | 24.40929 | 16276 ft | 364 kts | 211° |
| 2026-04-26 16:31 | 59.97236 | 24.38589 | 17024 ft | 368 kts | 211° |
| 2026-04-26 16:32 | 59.94954 | 24.36227 | 17755 ft | 371 kts | 211° |
| 2026-04-26 16:32 | 59.93432 | 24.34655 | 18211 ft | 374 kts | 211° |
| 2026-04-26 16:32 | 59.90328 | 24.31458 | 19057 ft | 377 kts | 211° |
| 2026-04-26 16:32 | 59.87983 | 24.29044 | 19644 ft | 381 kts | 211° |
| 2026-04-26 16:33 | 59.85615 | 24.26613 | 20233 ft | 385 kts | 211° |
| 2026-04-26 16:33 | 59.83220 | 24.24159 | 20829 ft | 389 kts | 211° |
| 2026-04-26 16:33 | 59.80807 | 24.21692 | 21435 ft | 392 kts | 211° |
| 2026-04-26 16:33 | 59.78372 | 24.19204 | 22007 ft | 396 kts | 211° |
| 2026-04-26 16:34 | 59.75912 | 24.16695 | 22572 ft | 400 kts | 211° |
| 2026-04-26 16:34 | 59.73473 | 24.14155 | 23137 ft | 402 kts | 214° |
| 2026-04-26 16:34 | 59.71148 | 24.11101 | 23661 ft | 402 kts | 220° |
| 2026-04-26 16:34 | 59.68865 | 24.07846 | 24089 ft | 406 kts | 220° |
| 2026-04-26 16:35 | 59.66562 | 24.04566 | 24507 ft | 410 kts | 220° |
| 2026-04-26 16:35 | 59.64228 | 24.01257 | 24935 ft | 414 kts | 220° |
| 2026-04-26 16:35 | 59.61878 | 23.97939 | 25372 ft | 418 kts | 220° |
| 2026-04-26 16:35 | 59.59499 | 23.94590 | 25768 ft | 422 kts | 220° |
| 2026-04-26 16:36 | 59.57099 | 23.91214 | 26166 ft | 425 kts | 220° |
| 2026-04-26 16:36 | 59.54678 | 23.87812 | 26559 ft | 429 kts | 220° |
| 2026-04-26 16:36 | 59.52238 | 23.84389 | 26973 ft | 432 kts | 220° |
| 2026-04-26 16:36 | 59.49779 | 23.80945 | 27336 ft | 436 kts | 220° |
| 2026-04-26 16:37 | 59.47344 | 23.77371 | 27698 ft | 437 kts | 225° |
| 2026-04-26 16:37 | 59.45094 | 23.73364 | 28052 ft | 438 kts | 228° |
| 2026-04-26 16:37 | 59.42864 | 23.69269 | 28431 ft | 440 kts | 228° |
| 2026-04-26 16:37 | 59.40616 | 23.65150 | 28763 ft | 444 kts | 228° |
| 2026-04-26 16:38 | 59.38348 | 23.61010 | 29096 ft | 447 kts | 228° |
| 2026-04-26 16:38 | 59.36064 | 23.56855 | 29421 ft | 450 kts | 228° |
| 2026-04-26 16:38 | 59.33761 | 23.52679 | 29771 ft | 452 kts | 228° |
| 2026-04-26 16:38 | 59.31443 | 23.48483 | 30066 ft | 455 kts | 228° |
| 2026-04-26 16:39 | 59.29105 | 23.44264 | 30328 ft | 458 kts | 228° |
| 2026-04-26 16:39 | 59.26758 | 23.40034 | 30616 ft | 461 kts | 228° |
| 2026-04-26 16:39 | 59.24394 | 23.35784 | 30920 ft | 462 kts | 227° |
| 2026-04-26 16:39 | 59.22019 | 23.31522 | 31229 ft | 464 kts | 227° |
| 2026-04-26 16:40 | 59.19639 | 23.27260 | 31576 ft | 464 kts | 227° |
| 2026-04-26 16:40 | 59.17259 | 23.23007 | 31937 ft | 465 kts | 227° |
| 2026-04-26 16:40 | 59.14874 | 23.18752 | 32304 ft | 464 kts | 227° |
| 2026-04-26 16:40 | 59.12490 | 23.14507 | 32638 ft | 465 kts | 227° |
| 2026-04-26 16:41 | 59.10114 | 23.10285 | 32965 ft | 465 kts | 227° |
| 2026-04-26 16:41 | 59.07712 | 23.06023 | 33304 ft | 465 kts | 227° |
| 2026-04-26 16:41 | 59.05322 | 23.01792 | 33642 ft | 465 kts | 227° |
| 2026-04-26 16:41 | 59.02932 | 22.97568 | 33940 ft | 465 kts | 227° |
| 2026-04-26 16:42 | 59.00537 | 22.93343 | 34206 ft | 465 kts | 227° |
| 2026-04-26 16:42 | 58.98146 | 22.89134 | 34486 ft | 464 kts | 226° |
| 2026-04-26 16:42 | 58.95757 | 22.84938 | 34775 ft | 463 kts | 226° |
| 2026-04-26 16:42 | 58.93372 | 22.80756 | 35025 ft | 462 kts | 226° |
| 2026-04-26 16:43 | 58.90989 | 22.76585 | 35253 ft | 462 kts | 226° |
| 2026-04-26 16:43 | 58.88637 | 22.72477 | 35499 ft | 461 kts | 226° |
| 2026-04-26 16:43 | 58.86258 | 22.68329 | 35751 ft | 460 kts | 226° |
| 2026-04-26 16:43 | 58.83878 | 22.64190 | 35979 ft | 460 kts | 226° |
| 2026-04-26 16:44 | 58.81499 | 22.60058 | 36200 ft | 460 kts | 226° |
| 2026-04-26 16:44 | 58.79122 | 22.55939 | 36420 ft | 459 kts | 226° |
| 2026-04-26 16:44 | 58.76749 | 22.51834 | 36650 ft | 458 kts | 226° |
| 2026-04-26 16:44 | 58.74377 | 22.47739 | 36856 ft | 458 kts | 226° |
| 2026-04-26 16:45 | 58.72001 | 22.43646 | 37070 ft | 458 kts | 226° |
| 2026-04-26 16:45 | 58.69631 | 22.39570 | 37256 ft | 457 kts | 226° |
| 2026-04-26 16:45 | 58.67260 | 22.35502 | 37466 ft | 457 kts | 226° |
| 2026-04-26 16:45 | 58.64890 | 22.31441 | 37636 ft | 456 kts | 225° |
| 2026-04-26 16:46 | 58.62519 | 22.27388 | 37822 ft | 456 kts | 225° |
| 2026-04-26 16:46 | 58.60151 | 22.23346 | 37965 ft | 456 kts | 225° |
| 2026-04-26 16:46 | 58.55415 | 22.15288 | 37993 ft | 454 kts | 225° |
| 2026-04-26 16:47 | 58.50682 | 22.07264 | 38000 ft | 455 kts | 225° |
| 2026-04-26 16:47 | 58.45948 | 21.99265 | 38003 ft | 454 kts | 225° |
| 2026-04-26 16:48 | 58.41208 | 21.91287 | 38011 ft | 454 kts | 225° |
| 2026-04-26 16:48 | 58.36463 | 21.83351 | 38011 ft | 454 kts | 225° |
| 2026-04-26 16:49 | 58.31708 | 21.75463 | 38017 ft | 453 kts | 225° |
| 2026-04-26 16:49 | 58.26959 | 21.67598 | 38014 ft | 452 kts | 225° |
| 2026-04-26 16:50 | 58.22210 | 21.59763 | 38016 ft | 452 kts | 225° |
| 2026-04-26 16:50 | 58.17461 | 21.51956 | 38016 ft | 452 kts | 224° |
| 2026-04-26 16:51 | 58.12711 | 21.44175 | 38022 ft | 452 kts | 224° |
| 2026-04-26 16:51 | 58.07951 | 21.36409 | 38027 ft | 452 kts | 224° |
| 2026-04-26 16:52 | 58.04765 | 21.31225 | 38031 ft | 452 kts | 224° |
| 2026-04-26 16:52 | 57.98413 | 21.20929 | 38039 ft | 453 kts | 224° |
| 2026-04-26 16:53 | 57.93630 | 21.13211 | 38049 ft | 453 kts | 224° |
| 2026-04-26 16:53 | 57.88837 | 21.05503 | 38055 ft | 454 kts | 224° |
| 2026-04-26 16:54 | 57.84031 | 20.97803 | 38064 ft | 454 kts | 224° |
| 2026-04-26 16:54 | 57.80028 | 20.91410 | 38068 ft | 455 kts | 224° |
| 2026-04-26 16:55 | 57.75202 | 20.83728 | 38079 ft | 456 kts | 224° |
| 2026-04-26 16:55 | 57.69575 | 20.74808 | 38083 ft | 456 kts | 224° |
| 2026-04-26 16:56 | 57.63087 | 20.64570 | 38090 ft | 457 kts | 224° |
| 2026-04-26 16:57 | 57.58217 | 20.56917 | 38100 ft | 457 kts | 224° |
| 2026-04-26 16:57 | 57.50907 | 20.45483 | 38110 ft | 458 kts | 224° |
| 2026-04-26 16:58 | 57.46852 | 20.39167 | 38109 ft | 458 kts | 224° |
| 2026-04-26 16:59 | 57.38709 | 20.26542 | 38106 ft | 455 kts | 224° |
| 2026-04-26 17:00 | 57.28969 | 20.11536 | 38104 ft | 455 kts | 224° |
| 2026-04-26 17:00 | 57.21692 | 20.00395 | 38114 ft | 454 kts | 224° |
| 2026-04-26 17:01 | 57.16857 | 19.92915 | 38115 ft | 452 kts | 227° |
| 2026-04-26 17:01 | 57.12579 | 19.84541 | 38109 ft | 447 kts | 233° |
| 2026-04-26 17:02 | 57.08442 | 19.76004 | 38116 ft | 447 kts | 232° |
| 2026-04-26 17:02 | 57.04274 | 19.67475 | 38119 ft | 447 kts | 232° |
| 2026-04-26 17:03 | 57.00111 | 19.59014 | 38127 ft | 446 kts | 232° |
| 2026-04-26 17:03 | 56.95943 | 19.50579 | 38122 ft | 446 kts | 232° |
| 2026-04-26 17:04 | 56.91775 | 19.42173 | 38128 ft | 446 kts | 232° |
| 2026-04-26 17:04 | 56.87622 | 19.33827 | 38135 ft | 446 kts | 232° |
| 2026-04-26 17:05 | 56.83447 | 19.25466 | 38137 ft | 445 kts | 232° |
| 2026-04-26 17:05 | 56.79268 | 19.17127 | 38140 ft | 445 kts | 232° |
| 2026-04-26 17:06 | 56.75088 | 19.08817 | 38142 ft | 444 kts | 233° |
| 2026-04-26 17:06 | 56.70906 | 19.00531 | 38149 ft | 444 kts | 233° |
| 2026-04-26 17:07 | 56.66716 | 18.92258 | 38153 ft | 444 kts | 233° |
| 2026-04-26 17:07 | 56.62521 | 18.84005 | 38160 ft | 445 kts | 233° |
| 2026-04-26 17:08 | 56.58320 | 18.75771 | 38155 ft | 444 kts | 233° |
| 2026-04-26 17:08 | 56.54132 | 18.67593 | 38163 ft | 441 kts | 233° |
| 2026-04-26 17:09 | 56.50662 | 18.60835 | 38158 ft | 441 kts | 233° |
| 2026-04-26 17:09 | 56.45773 | 18.51346 | 38166 ft | 440 kts | 233° |
| 2026-04-26 17:10 | 56.41587 | 18.43253 | 38158 ft | 440 kts | 233° |
| 2026-04-26 17:10 | 56.37402 | 18.35190 | 38169 ft | 440 kts | 233° |
| 2026-04-26 17:11 | 56.33206 | 18.27133 | 38167 ft | 441 kts | 233° |
| 2026-04-26 17:11 | 56.29030 | 18.19142 | 38178 ft | 441 kts | 233° |
| 2026-04-26 17:12 | 56.22707 | 18.07095 | 38186 ft | 442 kts | 233° |
| 2026-04-26 17:13 | 56.16362 | 17.95069 | 38177 ft | 442 kts | 233° |
| 2026-04-26 17:14 | 56.10029 | 17.83130 | 38175 ft | 440 kts | 233° |
| 2026-04-26 17:14 | 56.03697 | 17.71250 | 38176 ft | 439 kts | 233° |
| 2026-04-26 17:15 | 55.97365 | 17.59429 | 38173 ft | 439 kts | 233° |
| 2026-04-26 17:16 | 55.93139 | 17.51573 | 38185 ft | 439 kts | 233° |
| 2026-04-26 17:16 | 55.88909 | 17.43738 | 38186 ft | 439 kts | 233° |
| 2026-04-26 17:17 | 55.84673 | 17.35916 | 38191 ft | 439 kts | 232° |
| 2026-04-26 17:17 | 55.80237 | 17.28410 | 38191 ft | 446 kts | 224° |
| 2026-04-26 17:18 | 55.74877 | 17.22609 | 38191 ft | 458 kts | 211° |
| 2026-04-26 17:18 | 55.68787 | 17.18873 | 38193 ft | 465 kts | 204° |
| 2026-04-26 17:19 | 55.59237 | 17.15121 | 38203 ft | 475 kts | 192° |
| 2026-04-26 17:19 | 55.52656 | 17.13852 | 38217 ft | 475 kts | 193° |
| 2026-04-26 17:20 | 55.47191 | 17.12775 | 38202 ft | 475 kts | 193° |
| 2026-04-26 17:20 | 55.39548 | 17.11247 | 38211 ft | 472 kts | 193° |
| 2026-04-26 17:21 | 55.33065 | 17.09948 | 38208 ft | 472 kts | 193° |
| 2026-04-26 17:21 | 55.26536 | 17.08645 | 38220 ft | 472 kts | 193° |
| 2026-04-26 17:22 | 55.20108 | 17.06760 | 38215 ft | 464 kts | 201° |
| 2026-04-26 17:22 | 55.14083 | 17.03087 | 38230 ft | 455 kts | 211° |
| 2026-04-26 17:23 | 55.08351 | 16.98435 | 38231 ft | 455 kts | 212° |
| 2026-04-26 17:23 | 55.02600 | 16.93816 | 38244 ft | 456 kts | 212° |
| 2026-04-26 17:24 | 54.96828 | 16.89229 | 38231 ft | 456 kts | 211° |
| 2026-04-26 17:24 | 54.91071 | 16.84677 | 38237 ft | 454 kts | 211° |
| 2026-04-26 17:25 | 54.85311 | 16.80135 | 38242 ft | 455 kts | 211° |
| 2026-04-26 17:25 | 54.79546 | 16.75603 | 38248 ft | 455 kts | 211° |
| 2026-04-26 17:26 | 54.73781 | 16.71087 | 38251 ft | 455 kts | 211° |
| 2026-04-26 17:26 | 54.68014 | 16.66582 | 38258 ft | 455 kts | 211° |
| 2026-04-26 17:27 | 54.62237 | 16.62085 | 38263 ft | 455 kts | 211° |
| 2026-04-26 17:27 | 54.56455 | 16.57597 | 38273 ft | 456 kts | 211° |
| 2026-04-26 17:28 | 54.50666 | 16.53118 | 38279 ft | 456 kts | 211° |
| 2026-04-26 17:28 | 54.44873 | 16.48652 | 38272 ft | 455 kts | 211° |
| 2026-04-26 17:29 | 54.40084 | 16.44971 | 38262 ft | 454 kts | 211° |
| 2026-04-26 17:29 | 54.33341 | 16.39799 | 38273 ft | 454 kts | 211° |
| 2026-04-26 17:30 | 54.27576 | 16.35393 | 38278 ft | 454 kts | 211° |
| 2026-04-26 17:30 | 54.21835 | 16.31020 | 38289 ft | 454 kts | 211° |
| 2026-04-26 17:31 | 54.16039 | 16.26618 | 38284 ft | 454 kts | 211° |
| 2026-04-26 17:31 | 54.10309 | 16.22279 | 38287 ft | 454 kts | 211° |
| 2026-04-26 17:32 | 54.04538 | 16.17924 | 38282 ft | 453 kts | 211° |
| 2026-04-26 17:32 | 53.98771 | 16.13583 | 38293 ft | 453 kts | 211° |
| 2026-04-26 17:33 | 53.93000 | 16.09253 | 38291 ft | 453 kts | 211° |
| 2026-04-26 17:34 | 53.84339 | 16.02780 | 38304 ft | 453 kts | 211° |
| 2026-04-26 17:34 | 53.78565 | 15.98481 | 38300 ft | 454 kts | 211° |
| 2026-04-26 17:35 | 53.72787 | 15.94191 | 38304 ft | 454 kts | 211° |
| 2026-04-26 17:35 | 53.67006 | 15.89912 | 38303 ft | 454 kts | 211° |
| 2026-04-26 17:36 | 53.61224 | 15.85645 | 38304 ft | 454 kts | 211° |
| 2026-04-26 17:36 | 53.55441 | 15.81389 | 38302 ft | 454 kts | 211° |
| 2026-04-26 17:37 | 53.49653 | 15.77144 | 38301 ft | 453 kts | 211° |
| 2026-04-26 17:37 | 53.43872 | 15.72917 | 38299 ft | 453 kts | 211° |
| 2026-04-26 17:38 | 53.35201 | 15.66599 | 38295 ft | 453 kts | 211° |
| 2026-04-26 17:38 | 53.29425 | 15.62406 | 38295 ft | 453 kts | 211° |
| 2026-04-26 17:39 | 53.23643 | 15.58222 | 38294 ft | 453 kts | 211° |
| 2026-04-26 17:39 | 53.17863 | 15.54050 | 38297 ft | 453 kts | 211° |
| 2026-04-26 17:40 | 53.14035 | 15.51295 | 38293 ft | 453 kts | 211° |
| 2026-04-26 17:40 | 53.06297 | 15.45740 | 38294 ft | 453 kts | 211° |
| 2026-04-26 17:41 | 53.00546 | 15.41626 | 38295 ft | 453 kts | 211° |
| 2026-04-26 17:41 | 52.94758 | 15.37498 | 38295 ft | 453 kts | 210° |
| 2026-04-26 17:42 | 52.88961 | 15.33376 | 38296 ft | 453 kts | 210° |
| 2026-04-26 17:42 | 52.83167 | 15.29268 | 38303 ft | 453 kts | 210° |
| 2026-04-26 17:43 | 52.77365 | 15.25166 | 38289 ft | 453 kts | 210° |
| 2026-04-26 17:43 | 52.71578 | 15.21080 | 38294 ft | 451 kts | 209° |
| 2026-04-26 17:44 | 52.66747 | 15.17682 | 38288 ft | 450 kts | 209° |
| 2026-04-26 17:44 | 52.60985 | 15.13642 | 38296 ft | 450 kts | 209° |
| 2026-04-26 17:45 | 52.55263 | 15.09642 | 38301 ft | 449 kts | 209° |
| 2026-04-26 17:45 | 52.49506 | 15.05628 | 38292 ft | 449 kts | 209° |
| 2026-04-26 17:46 | 52.43752 | 15.01628 | 38298 ft | 449 kts | 209° |
| 2026-04-26 17:46 | 52.37999 | 14.97640 | 38296 ft | 449 kts | 208° |
| 2026-04-26 17:47 | 52.33221 | 14.94336 | 38298 ft | 448 kts | 208° |
| 2026-04-26 17:47 | 52.26507 | 14.89707 | 38291 ft | 448 kts | 208° |
| 2026-04-26 17:48 | 52.20768 | 14.85762 | 38294 ft | 447 kts | 208° |
| 2026-04-26 17:48 | 52.15028 | 14.81827 | 38299 ft | 447 kts | 208° |
| 2026-04-26 17:49 | 52.09296 | 14.77904 | 38293 ft | 447 kts | 208° |
| 2026-04-26 17:49 | 52.03699 | 14.73631 | 38295 ft | 441 kts | 215° |
| 2026-04-26 17:50 | 51.98397 | 14.68647 | 38288 ft | 440 kts | 216° |
| 2026-04-26 17:50 | 51.93096 | 14.63676 | 38290 ft | 440 kts | 215° |
| 2026-04-26 17:51 | 51.87786 | 14.58738 | 38288 ft | 440 kts | 215° |
| 2026-04-26 17:51 | 51.82512 | 14.53855 | 38282 ft | 440 kts | 215° |
| 2026-04-26 17:52 | 51.77200 | 14.48950 | 38286 ft | 440 kts | 215° |
| 2026-04-26 17:52 | 51.71886 | 14.44057 | 38285 ft | 440 kts | 215° |
| 2026-04-26 17:53 | 51.66574 | 14.39176 | 38287 ft | 440 kts | 215° |
| 2026-04-26 17:54 | 51.58599 | 14.31874 | 38289 ft | 440 kts | 214° |
| 2026-04-26 17:54 | 51.53278 | 14.27020 | 38294 ft | 440 kts | 214° |
| 2026-04-26 17:55 | 51.48101 | 14.21854 | 38291 ft | 437 kts | 218° |
| 2026-04-26 17:55 | 51.43037 | 14.16471 | 38295 ft | 437 kts | 218° |
| 2026-04-26 17:56 | 51.37851 | 14.11341 | 38295 ft | 441 kts | 212° |
| 2026-04-26 17:57 | 51.26514 | 14.03518 | 38293 ft | 444 kts | 207° |
| 2026-04-26 17:57 | 51.20818 | 13.99678 | 38294 ft | 444 kts | 207° |
| 2026-04-26 17:58 | 51.09424 | 13.92013 | 38296 ft | 445 kts | 207° |
| 2026-04-26 17:59 | 51.00869 | 13.86285 | 38296 ft | 445 kts | 207° |
| 2026-04-26 17:59 | 50.95163 | 13.82478 | 38296 ft | 445 kts | 207° |
| 2026-04-26 18:00 | 50.89666 | 13.78229 | 38298 ft | 441 kts | 213° |
| 2026-04-26 18:00 | 50.84261 | 13.73620 | 38298 ft | 441 kts | 212° |
| 2026-04-26 18:01 | 50.78850 | 13.69037 | 38294 ft | 441 kts | 212° |
| 2026-04-26 18:01 | 50.73336 | 13.64732 | 38296 ft | 445 kts | 206° |
| 2026-04-26 18:02 | 50.68388 | 13.62199 | 38292 ft | 449 kts | 197° |
| 2026-04-26 18:02 | 50.61198 | 13.60229 | 38297 ft | 451 kts | 193° |
| 2026-04-26 18:03 | 50.55000 | 13.58692 | 38280 ft | 451 kts | 193° |
| 2026-04-26 18:03 | 50.48803 | 13.57134 | 38285 ft | 451 kts | 193° |
| 2026-04-26 18:04 | 50.42609 | 13.55576 | 38284 ft | 451 kts | 193° |
| 2026-04-26 18:05 | 50.33332 | 13.53252 | 38278 ft | 450 kts | 193° |
| 2026-04-26 18:05 | 50.27144 | 13.51707 | 38282 ft | 450 kts | 193° |
| 2026-04-26 18:06 | 50.20960 | 13.50167 | 38278 ft | 450 kts | 193° |
| 2026-04-26 18:06 | 50.14776 | 13.48631 | 38281 ft | 450 kts | 193° |
| 2026-04-26 18:07 | 50.08598 | 13.47101 | 38281 ft | 449 kts | 193° |
| 2026-04-26 18:07 | 50.02459 | 13.45586 | 38280 ft | 449 kts | 193° |
| 2026-04-26 18:08 | 49.96289 | 13.44065 | 38274 ft | 449 kts | 193° |
| 2026-04-26 18:08 | 49.90123 | 13.42549 | 38261 ft | 448 kts | 193° |
| 2026-04-26 18:09 | 49.83970 | 13.41041 | 38256 ft | 448 kts | 193° |
| 2026-04-26 18:09 | 49.77823 | 13.39539 | 38243 ft | 447 kts | 193° |
| 2026-04-26 18:10 | 49.71680 | 13.38042 | 38238 ft | 446 kts | 193° |
| 2026-04-26 18:10 | 49.65549 | 13.36550 | 38238 ft | 446 kts | 193° |
| 2026-04-26 18:11 | 49.59424 | 13.35064 | 38233 ft | 445 kts | 193° |
| 2026-04-26 18:11 | 49.53304 | 13.33581 | 38232 ft | 445 kts | 193° |
| 2026-04-26 18:12 | 49.47190 | 13.32103 | 38239 ft | 445 kts | 193° |
| 2026-04-26 18:12 | 49.41076 | 13.30629 | 38248 ft | 445 kts | 193° |
| 2026-04-26 18:13 | 49.34966 | 13.29159 | 38240 ft | 444 kts | 193° |
| 2026-04-26 18:13 | 49.28861 | 13.27688 | 38233 ft | 444 kts | 194° |
| 2026-04-26 18:14 | 49.22926 | 13.25334 | 38238 ft | 438 kts | 204° |
| 2026-04-26 18:14 | 49.17384 | 13.21557 | 38232 ft | 435 kts | 210° |
| 2026-04-26 18:15 | 49.11961 | 13.17438 | 38229 ft | 435 kts | 210° |
| 2026-04-26 18:15 | 49.06487 | 13.13342 | 38219 ft | 435 kts | 210° |
| 2026-04-26 18:16 | 49.01075 | 13.09318 | 38222 ft | 436 kts | 210° |
| 2026-04-26 18:16 | 48.92891 | 13.03250 | 38231 ft | 436 kts | 210° |
| 2026-04-26 18:17 | 48.87424 | 12.99208 | 38221 ft | 437 kts | 209° |
| 2026-04-26 18:17 | 48.81949 | 12.95170 | 38221 ft | 438 kts | 209° |
| 2026-04-26 18:18 | 48.76483 | 12.91102 | 38222 ft | 437 kts | 212° |
| 2026-04-26 18:18 | 48.71419 | 12.86113 | 38227 ft | 433 kts | 221° |
| 2026-04-26 18:19 | 48.66936 | 12.80077 | 38217 ft | 431 kts | 226° |
| 2026-04-26 18:19 | 48.62532 | 12.73929 | 38216 ft | 431 kts | 226° |
| 2026-04-26 18:20 | 48.58106 | 12.67800 | 38221 ft | 432 kts | 226° |
| 2026-04-26 18:20 | 48.55147 | 12.63692 | 38225 ft | 432 kts | 226° |
| 2026-04-26 18:21 | 48.49257 | 12.55533 | 38220 ft | 432 kts | 225° |
| 2026-04-26 18:21 | 48.44821 | 12.49410 | 38222 ft | 432 kts | 225° |
| 2026-04-26 18:22 | 48.40311 | 12.43418 | 38224 ft | 433 kts | 223° |
| 2026-04-26 18:22 | 48.35689 | 12.37600 | 38222 ft | 433 kts | 223° |
| 2026-04-26 18:23 | 48.31082 | 12.31770 | 38226 ft | 433 kts | 223° |
| 2026-04-26 18:23 | 48.26486 | 12.25936 | 38220 ft | 433 kts | 223° |
| 2026-04-26 18:24 | 48.21889 | 12.20108 | 38216 ft | 433 kts | 223° |
| 2026-04-26 18:24 | 48.17291 | 12.14293 | 38210 ft | 432 kts | 223° |
| 2026-04-26 18:25 | 48.12692 | 12.08492 | 38204 ft | 432 kts | 223° |
| 2026-04-26 18:25 | 48.08091 | 12.02704 | 38201 ft | 432 kts | 223° |
| 2026-04-26 18:26 | 48.03488 | 11.96927 | 38193 ft | 432 kts | 223° |
| 2026-04-26 18:26 | 47.98912 | 11.91198 | 38188 ft | 432 kts | 223° |
| 2026-04-26 18:27 | 47.94294 | 11.85453 | 38187 ft | 433 kts | 220° |
| 2026-04-26 18:27 | 47.88986 | 11.81136 | 38177 ft | 440 kts | 201° |
| 2026-04-26 18:28 | 47.82940 | 11.79564 | 38174 ft | 447 kts | 185° |
| 2026-04-26 18:28 | 47.76699 | 11.79247 | 38171 ft | 448 kts | 185° |
| 2026-04-26 18:29 | 47.70460 | 11.78896 | 38173 ft | 449 kts | 185° |
| 2026-04-26 18:29 | 47.64219 | 11.78543 | 38180 ft | 450 kts | 185° |
| 2026-04-26 18:30 | 47.57964 | 11.78192 | 38173 ft | 450 kts | 185° |
| 2026-04-26 18:30 | 47.54832 | 11.78017 | 38366 ft | 450 kts | 185° |
| 2026-04-26 18:30 | 47.52762 | 11.77900 | 38530 ft | 450 kts | 185° |
| 2026-04-26 18:31 | 47.49634 | 11.77725 | 38734 ft | 450 kts | 185° |
| 2026-04-26 18:31 | 47.46506 | 11.77549 | 38879 ft | 450 kts | 185° |
| 2026-04-26 18:31 | 47.43378 | 11.77375 | 39004 ft | 450 kts | 185° |
| 2026-04-26 18:31 | 47.40251 | 11.77201 | 39134 ft | 450 kts | 185° |
| 2026-04-26 18:32 | 47.34006 | 11.76852 | 39156 ft | 448 kts | 185° |
| 2026-04-26 18:32 | 47.27775 | 11.76505 | 39151 ft | 448 kts | 185° |
| 2026-04-26 18:33 | 47.21539 | 11.76159 | 39156 ft | 448 kts | 185° |
| 2026-04-26 18:33 | 47.15320 | 11.75659 | 39148 ft | 446 kts | 190° |
| 2026-04-26 18:34 | 47.09301 | 11.73768 | 39128 ft | 440 kts | 201° |
| 2026-04-26 18:34 | 47.03678 | 11.70396 | 39133 ft | 436 kts | 208° |
| 2026-04-26 18:35 | 46.98184 | 11.66662 | 39122 ft | 439 kts | 207° |
| 2026-04-26 18:35 | 46.92607 | 11.62915 | 39120 ft | 438 kts | 207° |
| 2026-04-26 18:36 | 46.87068 | 11.59208 | 39115 ft | 437 kts | 207° |
| 2026-04-26 18:36 | 46.81524 | 11.55511 | 39111 ft | 438 kts | 207° |
| 2026-04-26 18:37 | 46.76019 | 11.51843 | 39099 ft | 438 kts | 207° |
| 2026-04-26 18:37 | 46.70663 | 11.47696 | 39076 ft | 434 kts | 216° |
| 2026-04-26 18:38 | 46.65968 | 11.42248 | 39062 ft | 430 kts | 227° |
| 2026-04-26 18:38 | 46.61909 | 11.35878 | 39044 ft | 429 kts | 230° |
| 2026-04-26 18:39 | 46.57897 | 11.29457 | 39032 ft | 429 kts | 230° |
| 2026-04-26 18:39 | 46.53862 | 11.23049 | 39029 ft | 430 kts | 230° |
| 2026-04-26 18:40 | 46.49815 | 11.16644 | 39039 ft | 430 kts | 230° |
| 2026-04-26 18:40 | 46.45763 | 11.10245 | 39252 ft | 431 kts | 230° |
| 2026-04-26 18:41 | 46.41705 | 11.03852 | 39268 ft | 431 kts | 230° |
| 2026-04-26 18:41 | 46.37644 | 10.97469 | 39259 ft | 429 kts | 230° |
| 2026-04-26 18:42 | 46.33601 | 10.91119 | 39251 ft | 429 kts | 231° |
| 2026-04-26 18:42 | 46.30007 | 10.84276 | 39244 ft | 426 kts | 240° |
| 2026-04-26 18:43 | 46.27195 | 10.76757 | 39235 ft | 425 kts | 245° |
| 2026-04-26 18:43 | 46.24557 | 10.69113 | 39219 ft | 424 kts | 245° |
| 2026-04-26 18:44 | 46.21905 | 10.61507 | 39204 ft | 424 kts | 245° |
| 2026-04-26 18:44 | 46.19245 | 10.53916 | 39199 ft | 423 kts | 245° |
| 2026-04-26 18:45 | 46.16684 | 10.46274 | 39195 ft | 423 kts | 250° |
| 2026-04-26 18:45 | 46.14889 | 10.38227 | 39192 ft | 421 kts | 258° |
| 2026-04-26 18:46 | 46.13841 | 10.29915 | 39189 ft | 422 kts | 262° |
| 2026-04-26 18:46 | 46.12847 | 10.21576 | 39187 ft | 423 kts | 261° |
| 2026-04-26 18:47 | 46.11840 | 10.13281 | 39184 ft | 423 kts | 261° |
| 2026-04-26 18:47 | 46.10818 | 10.04927 | 39179 ft | 423 kts | 261° |
| 2026-04-26 18:48 | 46.09791 | 9.96571 | 39163 ft | 423 kts | 261° |
| 2026-04-26 18:48 | 46.08761 | 9.88250 | 39155 ft | 422 kts | 261° |
| 2026-04-26 18:49 | 46.07727 | 9.79934 | 39149 ft | 422 kts | 261° |
| 2026-04-26 18:49 | 46.06683 | 9.71595 | 39139 ft | 423 kts | 261° |
| 2026-04-26 18:50 | 46.05635 | 9.63284 | 39128 ft | 422 kts | 261° |
| 2026-04-26 18:50 | 46.04582 | 9.54978 | 39119 ft | 422 kts | 261° |
| 2026-04-26 18:51 | 46.03523 | 9.46671 | 39109 ft | 422 kts | 261° |
| 2026-04-26 18:51 | 46.02456 | 9.38363 | 39096 ft | 422 kts | 261° |
| 2026-04-26 18:52 | 46.01384 | 9.30059 | 39089 ft | 423 kts | 261° |
| 2026-04-26 18:52 | 46.00304 | 9.21742 | 39079 ft | 422 kts | 261° |
| 2026-04-26 18:53 | 45.99141 | 9.13485 | 39064 ft | 422 kts | 256° |
| 2026-04-26 18:53 | 45.97024 | 9.05611 | 38933 ft | 423 kts | 245° |
| 2026-04-26 18:54 | 45.95557 | 9.01935 | 38392 ft | 426 kts | 239° |
| 2026-04-26 18:54 | 45.93815 | 8.98466 | 37558 ft | 431 kts | 234° |
| 2026-04-26 18:54 | 45.91976 | 8.95039 | 36631 ft | 435 kts | 235° |
| 2026-04-26 18:54 | 45.90128 | 8.91569 | 35711 ft | 439 kts | 235° |
| 2026-04-26 18:55 | 45.88272 | 8.88077 | 34897 ft | 441 kts | 234° |
| 2026-04-26 18:55 | 45.86413 | 8.84584 | 34099 ft | 441 kts | 234° |
| 2026-04-26 18:55 | 45.84552 | 8.81093 | 33169 ft | 441 kts | 234° |
| 2026-04-26 18:55 | 45.82687 | 8.77600 | 32425 ft | 439 kts | 234° |
| 2026-04-26 18:56 | 45.80831 | 8.74129 | 31632 ft | 438 kts | 234° |
| 2026-04-26 18:56 | 45.78979 | 8.70667 | 30873 ft | 438 kts | 234° |
| 2026-04-26 18:56 | 45.77134 | 8.67226 | 30354 ft | 431 kts | 234° |
| 2026-04-26 18:56 | 45.75317 | 8.63841 | 29750 ft | 427 kts | 234° |
| 2026-04-26 18:57 | 45.73519 | 8.60493 | 29191 ft | 421 kts | 234° |
| 2026-04-26 18:57 | 45.72343 | 8.58306 | 28819 ft | 417 kts | 234° |
| 2026-04-26 18:57 | 45.70000 | 8.53953 | 28092 ft | 409 kts | 234° |
| 2026-04-26 18:57 | 45.68269 | 8.50742 | 27564 ft | 405 kts | 234° |
| 2026-04-26 18:58 | 45.66562 | 8.47577 | 27023 ft | 400 kts | 234° |
| 2026-04-26 18:58 | 45.64863 | 8.44448 | 26493 ft | 397 kts | 232° |
| 2026-04-26 18:58 | 45.62974 | 8.41588 | 25953 ft | 395 kts | 224° |
| 2026-04-26 18:58 | 45.60845 | 8.39199 | 25430 ft | 394 kts | 216° |
| 2026-04-26 18:59 | 45.58484 | 8.37233 | 24905 ft | 392 kts | 210° |
| 2026-04-26 18:59 | 45.56095 | 8.35379 | 24359 ft | 390 kts | 210° |
| 2026-04-26 18:59 | 45.53688 | 8.33498 | 23791 ft | 389 kts | 210° |
| 2026-04-26 18:59 | 45.51324 | 8.31645 | 23255 ft | 386 kts | 210° |
| 2026-04-26 19:00 | 45.48985 | 8.29813 | 22725 ft | 382 kts | 210° |
| 2026-04-26 19:00 | 45.46667 | 8.28000 | 22206 ft | 378 kts | 210° |
| 2026-04-26 19:00 | 45.44371 | 8.26206 | 21678 ft | 375 kts | 210° |
| 2026-04-26 19:00 | 45.42093 | 8.24428 | 21162 ft | 372 kts | 210° |
| 2026-04-26 19:01 | 45.39829 | 8.22663 | 20637 ft | 370 kts | 210° |
| 2026-04-26 19:01 | 45.37609 | 8.20933 | 20130 ft | 368 kts | 210° |
| 2026-04-26 19:01 | 45.35371 | 8.19192 | 19605 ft | 366 kts | 210° |
| 2026-04-26 19:01 | 45.33110 | 8.17434 | 19093 ft | 364 kts | 210° |
| 2026-04-26 19:02 | 45.30945 | 8.15753 | 18914 ft | 353 kts | 210° |
| 2026-04-26 19:02 | 45.28831 | 8.14114 | 18758 ft | 341 kts | 210° |
| 2026-04-26 19:02 | 45.26780 | 8.12482 | 18483 ft | 334 kts | 216° |
| 2026-04-26 19:02 | 45.25610 | 8.11048 | 18306 ft | 326 kts | 231° |
| 2026-04-26 19:03 | 45.24303 | 8.07285 | 17961 ft | 325 kts | 260° |
| 2026-04-26 19:03 | 45.23924 | 8.04125 | 17668 ft | 325 kts | 262° |
| 2026-04-26 19:03 | 45.23565 | 8.00952 | 17239 ft | 325 kts | 262° |
| 2026-04-26 19:03 | 45.23205 | 7.97790 | 16824 ft | 323 kts | 262° |
| 2026-04-26 19:04 | 45.22843 | 7.94660 | 16416 ft | 321 kts | 262° |
| 2026-04-26 19:04 | 45.22478 | 7.91555 | 16010 ft | 318 kts | 262° |
| 2026-04-26 19:04 | 45.22114 | 7.88474 | 15609 ft | 315 kts | 262° |
| 2026-04-26 19:04 | 45.21751 | 7.85416 | 15210 ft | 313 kts | 261° |
| 2026-04-26 19:05 | 45.19656 | 7.80197 | 14406 ft | 313 kts | 217° |
| 2026-04-26 19:05 | 45.17699 | 7.78901 | 14000 ft | 313 kts | 193° |
| 2026-04-26 19:05 | 45.15537 | 7.78610 | 13572 ft | 312 kts | 182° |
| 2026-04-26 19:06 | 45.13373 | 7.78531 | 13165 ft | 310 kts | 181° |
| 2026-04-26 19:06 | 45.11253 | 7.78466 | 12998 ft | 299 kts | 182° |
| 2026-04-26 19:06 | 45.09209 | 7.78380 | 12804 ft | 291 kts | 182° |
| 2026-04-26 19:06 | 45.07204 | 7.78272 | 12515 ft | 286 kts | 183° |
| 2026-04-26 19:07 | 45.05220 | 7.78151 | 12133 ft | 285 kts | 183° |
| 2026-04-26 19:07 | 45.03242 | 7.78024 | 11751 ft | 284 kts | 183° |
| 2026-04-26 19:07 | 45.01269 | 7.77895 | 11364 ft | 283 kts | 183° |
| 2026-04-26 19:07 | 44.99301 | 7.77765 | 10982 ft | 283 kts | 183° |
| 2026-04-26 19:08 | 44.97337 | 7.77636 | 10604 ft | 283 kts | 183° |
| 2026-04-26 19:08 | 44.95373 | 7.77506 | 10220 ft | 282 kts | 182° |
| 2026-04-26 19:08 | 44.93413 | 7.77375 | 9817 ft | 282 kts | 182° |
| 2026-04-26 19:08 | 44.91454 | 7.77245 | 9432 ft | 281 kts | 182° |
| 2026-04-26 19:09 | 44.89537 | 7.77118 | 9267 ft | 270 kts | 182° |
| 2026-04-26 19:09 | 44.87696 | 7.76997 | 9166 ft | 259 kts | 182° |
| 2026-04-26 19:09 | 44.85929 | 7.76881 | 8986 ft | 251 kts | 182° |
| 2026-04-26 19:09 | 44.84192 | 7.76767 | 8680 ft | 249 kts | 182° |
| 2026-04-26 19:10 | 44.82481 | 7.76475 | 8343 ft | 248 kts | 200° |
| 2026-04-26 19:10 | 44.81064 | 7.75169 | 8004 ft | 245 kts | 230° |
| 2026-04-26 19:10 | 44.80317 | 7.73056 | 7669 ft | 242 kts | 261° |
| 2026-04-26 19:10 | 44.80294 | 7.70694 | 7336 ft | 242 kts | 275° |
| 2026-04-26 19:11 | 44.80478 | 7.68347 | 7033 ft | 241 kts | 277° |
| 2026-04-26 19:11 | 44.80689 | 7.66039 | 6734 ft | 240 kts | 283° |
| 2026-04-26 19:11 | 44.81497 | 7.64012 | 6390 ft | 239 kts | 320° |
| 2026-04-26 19:11 | 44.82980 | 7.62999 | 6043 ft | 238 kts | 348° |
| 2026-04-26 19:12 | 44.84624 | 7.62759 | 5740 ft | 237 kts | 360° |
| 2026-04-26 19:12 | 44.86266 | 7.62820 | 5474 ft | 235 kts | 3° |
| 2026-04-26 19:12 | 44.87895 | 7.62934 | 5197 ft | 234 kts | 3° |
| 2026-04-26 19:12 | 44.89491 | 7.63033 | 4932 ft | 232 kts | 2° |
| 2026-04-26 19:13 | 44.91101 | 7.63134 | 4659 ft | 231 kts | 2° |
| 2026-04-26 19:13 | 44.92699 | 7.63234 | 4393 ft | 229 kts | 2° |
| 2026-04-26 19:13 | 44.94290 | 7.63334 | 4132 ft | 228 kts | 2° |
| 2026-04-26 19:13 | 44.95850 | 7.63432 | 4008 ft | 221 kts | 2° |
| 2026-04-26 19:14 | 44.97395 | 7.63529 | 4004 ft | 223 kts | 2° |
| 2026-04-26 19:14 | 44.98943 | 7.63626 | 4008 ft | 222 kts | 2° |
| 2026-04-26 19:14 | 45.00478 | 7.63723 | 3995 ft | 216 kts | 2° |
| 2026-04-26 19:14 | 45.00978 | 7.63755 | 4001 ft | 210 kts | 2° |
| 2026-04-26 19:15 | 45.03308 | 7.63901 | 3982 ft | 202 kts | 2° |
| 2026-04-26 19:15 | 45.04719 | 7.63990 | 3744 ft | 203 kts | 2° |
| 2026-04-26 19:15 | 45.06109 | 7.64078 | 3492 ft | 197 kts | 2° |
| 2026-04-26 19:15 | 45.07461 | 7.64164 | 3205 ft | 192 kts | 2° |
| 2026-04-26 19:16 | 45.08759 | 7.64246 | 2946 ft | 182 kts | 2° |
| 2026-04-26 19:16 | 45.09970 | 7.64322 | 2714 ft | 167 kts | 2° |
| 2026-04-26 19:16 | 45.11079 | 7.64392 | 2504 ft | 151 kts | 2° |
| 2026-04-26 19:16 | 45.12083 | 7.64456 | 2304 ft | 139 kts | 2° |
| 2026-04-26 19:17 | 45.13049 | 7.64517 | 2120 ft | 140 kts | 2° |
| 2026-04-26 19:17 | 45.14017 | 7.64579 | 1929 ft | 138 kts | 2° |
| 2026-04-26 19:17 | 45.14973 | 7.64639 | 1736 ft | 137 kts | 2° |
| 2026-04-26 19:17 | 45.15923 | 7.64700 | 1563 ft | 137 kts | 3° |
| 2026-04-26 19:18 | 45.16560 | 7.64740 | 1508 ft | 140 kts | 3° |
| 2026-04-26 19:18 | 45.17620 | 7.64822 | 1290 ft | 168 kts | 4° |
| 2026-04-26 19:18 | 45.18885 | 7.64887 | 1071 ft | 183 kts | 1° |
| 2026-04-26 19:18 | 45.20028 | 7.64967 | 1001 ft | 148 kts | 2° |
| 2026-04-26 19:19 | 45.20963 | 7.65077 | 991 ft | 122 kts | 4° |
| 2026-04-26 19:19 | 45.21409 | 7.65069 | 1003 ft | 32 kts | 354° |
| 2026-04-26 19:19 | 45.21545 | 7.64923 | 1008 ft | 21 kts | 279° |
| 2026-04-26 19:19 | 45.21544 | 7.64887 | 1008 ft | 0 kts | 263° |
| 2026-04-26 19:20 | 45.21531 | 7.64834 | 1007 ft | 8 kts | 237° |
| 2026-04-26 19:20 | 45.21463 | 7.64786 | 1003 ft | 14 kts | 188° |
| 2026-04-26 19:21 | 45.21345 | 7.64779 | 998 ft | 20 kts | 186° |
| 2026-04-26 19:21 | 45.21194 | 7.64768 | 995 ft | 24 kts | 181° |
| 2026-04-26 19:21 | 45.21030 | 7.64757 | 991 ft | 24 kts | 182° |
| 2026-04-26 19:21 | 45.20871 | 7.64748 | 991 ft | 22 kts | 182° |
| 2026-04-26 19:22 | 45.20712 | 7.64736 | 990 ft | 22 kts | 181° |
| 2026-04-26 19:22 | 45.20543 | 7.64727 | 987 ft | 26 kts | 182° |
| 2026-04-26 19:22 | 45.20372 | 7.64716 | 990 ft | 23 kts | 183° |
| 2026-04-26 19:22 | 45.20198 | 7.64705 | 972 ft | 27 kts | 182° |
| 2026-04-26 19:23 | 45.20020 | 7.64694 | 965 ft | 25 kts | 183° |
| 2026-04-26 19:23 | 45.19863 | 7.64683 | 960 ft | 22 kts | 182° |
| 2026-04-26 19:23 | 45.19707 | 7.64700 | 961 ft | 23 kts | 184° |
| 2026-04-26 19:23 | 45.19543 | 7.64688 | 954 ft | 25 kts | 182° |
| 2026-04-26 19:24 | 45.19384 | 7.64678 | 958 ft | 16 kts | 182° |
| 2026-04-26 19:24 | 45.19294 | 7.64657 | 958 ft | 8 kts | 230° |
| 2026-04-26 19:24 | 45.19274 | 7.64545 | 952 ft | 0 kts | 257° |